Time;durP1;ratioP1;P1;durP2;ratioP2;P2;SDS_P1;SDS_P2;PMS_P1;PMS_P2;Temp;Humidity;BMP_temperature;BMP_pressure;BME280_temperature;BME280_humidity;BME280_pressure;Samples;Min_cycle;Max_cycle;Signal;HPM_P1;HPM_P2
2021/07/19 00:02:05;;;;;;;;;6.25;5.75;;;;;23.70;56.25;101933.38;4886104;29;45225;-82
2021/07/19 00:04:39;;;;;;;;;6.50;6.50;;;;;23.70;56.13;101937.88;4884344;29;46668;-82
2021/07/19 00:07:04;;;;;;;;;9.00;7.75;;;;;23.68;56.16;101935.28;4885490;29;45275;-82
2021/07/19 00:09:30;;;;;;;;;6.25;6.25;;;;;23.66;56.31;101931.84;4885132;29;45672;-82
2021/07/19 00:11:55;;;;;;;;;9.00;6.25;;;;;23.67;56.66;101940.75;4884505;29;45356;-82
2021/07/19 00:14:21;;;;;;;;;8.00;8.00;;;;;23.64;56.05;101932.91;4885943;29;45317;-82
2021/07/19 00:16:46;;;;;;;;;9.25;8.50;;;;;23.63;56.61;101934.72;4886491;29;45441;-82
2021/07/19 00:19:12;;;;;;;;;5.75;5.75;;;;;23.60;56.94;101946.56;4884360;29;46023;-82
2021/07/19 00:21:37;;;;;;;;;6.50;6.00;;;;;23.56;56.78;101942.38;4898248;29;45235;-82
2021/07/19 00:24:03;;;;;;;;;6.00;6.00;;;;;23.55;57.65;101942.47;4884684;29;45353;-82
2021/07/19 00:26:28;;;;;;;;;5.25;5.25;;;;;23.53;57.68;101944.41;4886242;29;45329;-82
2021/07/19 00:28:54;;;;;;;;;6.50;6.50;;;;;23.49;57.78;101930.34;4885172;29;45463;-82
2021/07/19 00:31:21;;;;;;;;;7.50;7.25;;;;;23.46;57.27;101941.25;4885923;29;45455;-82
2021/07/19 00:33:46;;;;;;;;;6.75;5.50;;;;;23.41;58.05;101940.72;4884830;29;46434;-78
2021/07/19 00:36:11;;;;;;;;;6.75;6.75;;;;;23.36;57.51;101938.38;4885644;29;45297;-79
2021/07/19 00:38:37;;;;;;;;;9.25;8.75;;;;;23.31;57.09;101940.50;4885399;29;45930;-76
2021/07/19 00:41:03;;;;;;;;;10.00;7.50;;;;;23.29;57.41;101940.59;4898840;29;45851;-75
2021/07/19 00:43:29;;;;;;;;;8.00;7.25;;;;;23.27;58.08;101935.34;4883384;29;45475;-75
2021/07/19 00:45:54;;;;;;;;;8.25;6.75;;;;;23.25;57.44;101931.06;4885795;29;45164;-75
2021/07/19 00:48:20;;;;;;;;;8.25;6.00;;;;;23.24;57.51;101937.38;4884842;29;45461;-75
2021/07/19 00:50:46;;;;;;;;;7.25;7.25;;;;;23.22;57.85;101941.97;4884987;29;45167;-75
2021/07/19 00:53:11;;;;;;;;;7.75;6.00;;;;;23.18;57.90;101936.00;4884879;29;46373;-74
2021/07/19 00:55:44;;;;;;;;;11.00;8.00;;;;;23.16;58.07;101945.97;4885648;29;45267;-78
2021/07/19 00:58:12;;;;;;;;;9.25;8.25;;;;;23.14;58.44;101940.69;4885575;29;45530;-78
2021/07/19 01:00:44;;;;;;;;;9.00;8.00;;;;;23.14;57.69;101942.50;4885500;29;45443;-78
2021/07/19 01:03:11;;;;;;;;;7.50;6.00;;;;;23.10;57.70;101932.97;4884786;29;45845;-78
2021/07/19 01:05:39;;;;;;;;;7.75;7.75;;;;;23.10;58.55;101931.16;4884441;29;45685;-78
2021/07/19 01:08:05;;;;;;;;;10.50;7.50;;;;;23.11;58.14;101935.53;4884978;29;45373;-78
2021/07/19 01:10:32;;;;;;;;;8.25;7.00;;;;;23.08;58.18;101929.53;4885601;29;45332;-77
2021/07/19 01:12:58;;;;;;;;;8.50;6.50;;;;;23.05;58.51;101930.59;4883727;29;45189;-78
2021/07/19 04:56:05;;;;;;;;;12.00;11.00;;;;;21.21;64.28;101904.53;5527386;23;46742;-84
2021/07/19 04:58:33;;;;;;;;;14.50;10.50;;;;;21.21;65.04;101896.50;4900311;28;45637;-82
2021/07/19 05:01:04;;;;;;;;;9.75;9.25;;;;;21.19;64.15;101901.09;4897022;29;45386;-82
2021/07/19 05:03:34;;;;;;;;;11.00;10.00;;;;;21.18;64.48;101903.88;4903172;29;45223;-82
2021/07/19 05:06:01;;;;;;;;;11.25;11.25;;;;;21.15;64.92;101904.91;4903553;28;45322;-82
2021/07/19 05:08:28;;;;;;;;;14.50;11.25;;;;;21.17;64.76;101910.16;4902728;28;46315;-81
2021/07/19 05:10:54;;;;;;;;;13.50;10.75;;;;;21.18;64.32;101912.75;4894510;29;45718;-82
2021/07/19 05:13:23;;;;;;;;;14.00;11.00;;;;;21.21;64.63;101911.72;4904140;29;45225;-82
2021/07/19 05:15:49;;;;;;;;;12.75;11.75;;;;;21.22;64.68;101916.09;4903357;28;45501;-81
2021/07/19 05:18:18;;;;;;;;;11.00;11.00;;;;;21.27;64.58;101921.16;4895854;28;45271;-82
2021/07/19 05:20:44;;;;;;;;;16.25;11.75;;;;;21.25;64.21;101913.25;4899954;29;45283;-82
2021/07/19 05:23:10;;;;;;;;;14.25;13.25;;;;;21.26;64.32;101914.94;4908003;28;45811;-82
2021/07/19 05:25:35;;;;;;;;;12.25;11.25;;;;;21.28;64.88;101914.88;4889146;29;45378;-82
2021/07/19 05:28:05;;;;;;;;;12.25;11.50;;;;;21.28;64.72;101912.19;4900588;29;45540;-82
2021/07/19 05:30:33;;;;;;;;;12.75;10.50;;;;;21.26;64.46;101914.94;4894599;29;45684;-82
2021/07/19 05:32:58;;;;;;;;;12.00;11.25;;;;;21.27;64.52;101907.78;4898347;29;45524;-83
2021/07/19 05:35:24;;;;;;;;;10.75;10.75;;;;;21.28;64.90;101907.72;4895641;28;45435;-81
2021/07/19 05:37:49;;;;;;;;;12.00;12.00;;;;;21.31;65.11;101920.88;4907604;28;45610;-80
2021/07/19 05:40:16;;;;;;;;;18.00;12.25;;;;;21.31;65.10;101917.38;4903965;28;45311;-82
2021/07/19 05:42:43;;;;;;;;;13.25;12.50;;;;;21.29;64.64;101917.44;4899592;28;45507;-81
2021/07/19 05:45:09;;;;;;;;;16.25;14.00;;;;;21.29;65.00;101919.25;4897080;28;45588;-80
2021/07/19 05:47:35;;;;;;;;;12.50;11.50;;;;;21.30;64.70;101918.31;4896727;28;45454;-81
2021/07/19 05:50:02;;;;;;;;;13.50;11.75;;;;;21.33;64.96;101924.34;4896518;29;46689;-81
2021/07/19 05:52:27;;;;;;;;;11.50;11.50;;;;;21.35;64.71;101925.09;4897700;29;45604;-83
2021/07/19 05:54:53;;;;;;;;;12.50;11.00;;;;;21.33;65.02;101924.34;4897759;28;45429;-84
2021/07/19 05:57:18;;;;;;;;;13.75;12.00;;;;;21.35;64.64;101926.91;4902383;29;45413;-83
2021/07/19 05:59:43;;;;;;;;;12.75;11.75;;;;;21.39;64.66;101920.41;4903464;28;45230;-83
2021/07/19 06:02:09;;;;;;;;;15.00;14.00;;;;;21.42;64.63;101919.38;4902908;28;45333;-84
2021/07/19 06:04:35;;;;;;;;;11.75;11.50;;;;;21.44;64.33;101915.66;4901290;29;45219;-84
2021/07/19 06:07:00;;;;;;;;;15.75;12.00;;;;;21.46;64.39;101916.41;4902384;29;45370;-84
2021/07/19 06:09:25;;;;;;;;;13.25;12.75;;;;;21.50;64.55;101914.44;4901910;28;46156;-85
2021/07/19 06:11:51;;;;;;;;;15.75;13.75;;;;;21.55;64.30;101915.00;4902621;28;45279;-84
2021/07/19 06:14:16;;;;;;;;;10.25;9.00;;;;;21.61;64.19;101918.25;4903433;29;45195;-83
2021/07/19 06:16:42;;;;;;;;;13.50;11.50;;;;;21.66;64.33;101910.78;4903255;29;45232;-84
2021/07/19 06:19:07;;;;;;;;;14.25;11.00;;;;;21.72;64.21;101907.75;4902155;28;46252;-82
2021/07/19 06:21:32;;;;;;;;;16.50;14.50;;;;;21.79;63.89;101917.09;4897179;28;45277;-83
2021/07/19 06:23:59;;;;;;;;;12.00;12.00;;;;;21.86;63.90;101916.72;4899996;29;45436;-83
2021/07/19 06:26:24;;;;;;;;;13.75;10.75;;;;;21.89;63.47;101911.19;4902740;29;45532;-82
2021/07/19 06:28:50;;;;;;;;;14.25;12.00;;;;;21.94;63.83;101914.44;4897052;28;46029;-82
2021/07/19 06:31:15;;;;;;;;;15.00;11.00;;;;;21.98;63.56;101915.97;4895570;29;45393;-83
2021/07/19 06:33:41;;;;;;;;;10.75;10.50;;;;;22.00;63.44;101916.72;4902175;28;45445;-83
2021/07/19 06:36:06;;;;;;;;;15.50;12.75;;;;;22.03;63.50;101919.22;4902680;28;45422;-83
2021/07/19 06:38:32;;;;;;;;;16.25;13.75;;;;;22.03;63.46;101915.69;4902224;28;45413;-83
2021/07/19 06:40:57;;;;;;;;;11.00;11.00;;;;;22.02;63.19;101922.88;4902948;28;45391;-83
2021/07/19 06:43:22;;;;;;;;;14.25;13.75;;;;;22.02;63.55;101912.16;4901678;28;45303;-82
2021/07/19 06:45:48;;;;;;;;;14.50;13.50;;;;;22.07;63.17;101913.69;4902299;28;45298;-83
2021/07/19 06:48:14;;;;;;;;;18.00;16.00;;;;;22.12;63.18;101920.47;4902859;29;45346;-83
2021/07/19 06:50:41;;;;;;;;;18.25;13.50;;;;;22.18;63.38;101924.53;4902927;28;45168;-83
2021/07/19 06:53:06;;;;;;;;;14.25;12.25;;;;;22.22;63.15;101918.06;4902471;29;45225;-82
2021/07/19 06:55:31;;;;;;;;;16.75;15.00;;;;;22.30;63.25;101914.03;4901826;28;45382;-83
2021/07/19 06:57:57;;;;;;;;;15.75;12.00;;;;;22.36;63.08;101910.94;4896368;28;46953;-83
2021/07/19 07:00:22;;;;;;;;;14.00;12.00;;;;;22.39;63.04;101910.75;4903050;28;45232;-83
2021/07/19 07:02:47;;;;;;;;;11.75;11.75;;;;;22.39;63.03;101912.56;4902209;28;45276;-83
2021/07/19 07:05:13;;;;;;;;;14.00;13.00;;;;;22.38;62.42;101911.69;4893830;28;45342;-83
2021/07/19 07:07:38;;;;;;;;;19.00;13.50;;;;;22.39;63.54;101913.41;4908379;28;45376;-82
2021/07/19 07:10:05;;;;;;;;;11.50;11.00;;;;;22.41;62.25;101910.63;4898105;28;45275;-83
2021/07/19 07:12:31;;;;;;;;;11.75;11.75;;;;;22.43;62.47;101909.56;4902166;28;45326;-83
2021/07/19 07:14:56;;;;;;;;;11.75;11.75;;;;;22.47;62.23;101902.22;4893028;29;45273;-83
2021/07/19 07:17:22;;;;;;;;;16.00;12.50;;;;;22.51;62.63;101910.88;4905963;28;47611;-83
2021/07/19 07:19:47;;;;;;;;;14.00;11.00;;;;;22.55;62.68;101917.75;4905999;28;45464;-83
2021/07/19 07:22:12;;;;;;;;;10.25;10.25;;;;;22.56;62.34;101904.28;4905399;28;45424;-83
2021/07/19 07:24:41;;;;;;;;;13.75;12.00;;;;;22.60;61.87;101902.25;4906000;29;45319;-83
2021/07/19 07:27:09;;;;;;;;;12.75;11.00;;;;;22.62;62.00;101903.00;4905296;28;45294;-83
2021/07/19 07:29:34;;;;;;;;;15.50;15.50;;;;;22.65;62.06;101900.13;4915415;28;45363;-83
2021/07/19 07:32:00;;;;;;;;;13.50;11.00;;;;;22.69;61.34;101900.81;4905092;28;45338;-83
2021/07/19 07:34:25;;;;;;;;;11.25;10.00;;;;;22.72;61.68;101905.94;4904750;28;46015;-83
2021/07/19 07:36:50;;;;;;;;;11.25;9.75;;;;;22.78;61.75;101902.00;4905913;28;45535;-83
2021/07/19 07:39:16;;;;;;;;;13.00;11.25;;;;;22.86;62.31;101901.50;4887970;29;45453;-83
2021/07/19 07:41:42;;;;;;;;;13.75;11.00;;;;;22.90;60.96;101905.69;4905061;28;45292;-85
2021/07/19 07:44:07;;;;;;;;;11.75;10.25;;;;;22.98;61.49;101907.84;4905564;28;45570;-90
2021/07/19 07:46:33;;;;;;;;;15.00;13.25;;;;;23.02;60.91;101901.31;4905512;28;46469;-84
2021/07/19 07:48:58;;;;;;;;;12.00;11.25;;;;;23.06;60.97;101900.16;4904571;28;45264;-76
2021/07/19 07:51:23;;;;;;;;;10.00;10.00;;;;;23.13;60.21;101906.81;4904985;28;45287;-75
2021/07/19 07:53:49;;;;;;;;;14.00;11.00;;;;;23.20;59.83;101907.25;4905151;28;45405;-77
2021/07/19 07:56:14;;;;;;;;;12.00;12.00;;;;;23.27;59.74;101913.03;4904367;28;45290;-75
2021/07/19 07:58:40;;;;;;;;;9.75;9.75;;;;;23.31;59.07;101909.16;4903432;29;45906;-76
2021/07/19 08:01:05;;;;;;;;;10.75;10.75;;;;;23.37;58.54;101902.53;4904770;29;45200;-75
2021/07/19 08:03:31;;;;;;;;;10.25;9.75;;;;;23.41;58.24;101900.50;4904574;29;45525;-75
2021/07/19 08:05:56;;;;;;;;;12.50;10.25;;;;;23.45;58.16;101900.16;4894830;28;46041;-74
2021/07/19 08:08:22;;;;;;;;;18.25;12.75;;;;;23.52;57.38;101905.13;4904753;28;45224;-75
2021/07/19 08:10:47;;;;;;;;;10.50;10.50;;;;;23.58;57.18;101896.66;4904931;29;45422;-75
2021/07/19 08:13:13;;;;;;;;;10.00;9.25;;;;;23.64;57.12;101900.72;4904712;28;45344;-75
2021/07/19 08:15:39;;;;;;;;;11.75;9.50;;;;;23.69;57.51;101893.19;4904933;29;45576;-75
2021/07/19 08:18:04;;;;;;;;;10.25;7.75;;;;;23.76;55.40;101891.78;4904855;28;45703;-75
2021/07/19 08:20:30;;;;;;;;;7.25;5.75;;;;;23.81;56.70;101896.81;4904981;28;45381;-77
2021/07/19 08:22:56;;;;;;;;;12.25;10.00;;;;;23.89;56.24;101896.28;4914726;28;47395;-75
2021/07/19 08:25:21;;;;;;;;;12.25;7.75;;;;;23.92;56.29;101886.19;4902554;29;48160;-75
2021/07/19 08:27:48;;;;;;;;;6.50;6.50;;;;;23.98;55.34;101887.56;4904828;29;45323;-75
2021/07/19 08:30:15;;;;;;;;;12.25;8.50;;;;;24.03;55.51;101885.41;4903608;29;45175;-74
2021/07/19 08:32:41;;;;;;;;;10.75;8.25;;;;;24.09;54.51;101892.16;4903393;29;46330;-75
2021/07/19 08:35:10;;;;;;;;;8.00;7.00;;;;;24.14;53.97;101884.63;4904699;28;46610;-75
2021/07/19 08:37:37;;;;;;;;;10.50;8.25;;;;;24.23;54.25;101887.59;4904959;28;45581;-75
2021/07/19 08:40:04;;;;;;;;;20.75;13.50;;;;;24.29;53.72;101881.81;4902996;28;45472;-75
2021/07/19 08:42:30;;;;;;;;;11.00;8.00;;;;;24.33;53.59;101880.59;4904292;29;45469;-75
2021/07/19 08:44:56;;;;;;;;;12.75;8.75;;;;;24.40;53.27;101883.69;4903859;28;45684;-75
2021/07/19 08:47:21;;;;;;;;;5.25;5.25;;;;;24.42;53.45;101886.28;4904448;28;45222;-75
2021/07/19 08:49:46;;;;;;;;;9.25;7.50;;;;;24.45;53.41;101886.03;4904521;28;45229;-73
2021/07/19 08:52:16;;;;;;;;;8.50;7.25;;;;;24.48;53.52;101885.78;4904474;28;45476;-76
2021/07/19 08:54:47;;;;;;;;;9.00;7.00;;;;;24.52;53.79;101883.75;4903049;28;48253;-76
2021/07/19 08:57:14;;;;;;;;;8.00;7.00;;;;;24.55;53.50;101880.81;4904130;28;45381;-76
2021/07/19 08:59:40;;;;;;;;;9.50;8.50;;;;;24.58;53.64;101875.22;4903434;29;45305;-75
2021/07/19 09:02:07;;;;;;;;;7.00;7.00;;;;;24.62;53.30;101876.69;4900614;28;45445;-76
2021/07/19 09:04:32;;;;;;;;;6.00;6.00;;;;;24.68;52.48;101875.38;4893524;29;47209;-76
2021/07/19 09:06:58;;;;;;;;;10.00;7.75;;;;;24.75;52.67;101875.75;4902685;28;45374;-76
2021/07/19 09:09:31;;;;;;;;;8.00;8.00;;;;;24.80;52.24;101879.81;4904247;28;45292;-77
2021/07/19 09:11:58;;;;;;;;;12.00;8.00;;;;;24.91;51.70;101872.75;4903936;29;45507;-76
2021/07/19 09:14:25;;;;;;;;;8.00;6.75;;;;;25.00;51.86;101873.91;4903000;29;47111;-76
2021/07/19 09:16:52;;;;;;;;;11.50;10.00;;;;;25.05;51.51;101869.91;4903061;28;45223;-76
2021/07/19 09:19:21;;;;;;;;;7.50;6.00;;;;;25.10;50.33;101866.84;4904328;28;45477;-76
2021/07/19 09:21:51;;;;;;;;;9.75;8.00;;;;;25.15;50.72;101861.97;4902756;29;46340;-76
2021/07/19 09:24:22;;;;;;;;;4.00;4.00;;;;;25.22;50.09;101866.84;4904087;28;46875;-76
2021/07/19 09:26:50;;;;;;;;;9.25;8.25;;;;;25.27;50.38;101875.41;4903395;28;45698;-76
2021/07/19 09:29:19;;;;;;;;;7.00;7.00;;;;;25.31;50.58;101876.88;4902063;28;46648;-76
2021/07/19 09:31:50;;;;;;;;;9.25;7.25;;;;;25.36;49.78;101877.38;4898439;29;45904;-76
2021/07/19 09:34:21;;;;;;;;;9.00;6.50;;;;;25.40;49.75;101876.19;4903293;29;46463;-76
2021/07/19 09:36:57;;;;;;;;;9.25;6.50;;;;;25.46;49.56;101876.69;4898342;29;45649;-76
2021/07/19 09:39:23;;;;;;;;;8.25;7.00;;;;;25.54;49.62;101876.03;4903835;29;45413;-75
2021/07/19 09:41:49;;;;;;;;;8.25;7.00;;;;;25.58;49.47;101872.16;4900811;29;45432;-76
2021/07/19 09:44:14;;;;;;;;;8.50;8.00;;;;;25.64;48.89;101879.72;4903165;29;46325;-76
2021/07/19 09:46:41;;;;;;;;;6.00;5.75;;;;;25.71;48.68;101872.00;4902787;28;45256;-77
2021/07/19 09:49:06;;;;;;;;;8.25;7.00;;;;;25.75;47.81;101870.81;4903708;28;45220;-77
2021/07/19 09:51:34;;;;;;;;;9.25;8.25;;;;;25.78;48.30;101859.78;4903932;29;45268;-76
2021/07/19 09:54:13;;;;;;;;;8.50;7.25;;;;;25.84;47.76;101866.53;4903522;29;45346;-77
2021/07/19 09:56:40;;;;;;;;;8.50;7.00;;;;;25.90;48.49;101863.34;4907722;28;45477;-76
2021/07/19 09:59:08;;;;;;;;;7.25;6.00;;;;;25.95;48.30;101857.56;4900736;28;45247;-76
2021/07/19 10:01:38;;;;;;;;;6.75;6.00;;;;;25.99;48.93;101858.16;4903747;28;45268;-76
2021/07/19 10:04:21;;;;;;;;;7.25;6.75;;;;;26.03;48.45;101852.41;4898705;28;46477;-77
2021/07/19 10:06:51;;;;;;;;;9.50;7.75;;;;;26.05;48.27;101842.34;4901795;29;45527;-76
2021/07/19 10:09:20;;;;;;;;;10.25;8.00;;;;;26.10;48.79;101852.75;4903585;29;45298;-77
2021/07/19 10:11:51;;;;;;;;;8.75;8.75;;;;;26.17;48.61;101847.72;4903306;28;45324;-76
2021/07/19 10:14:31;;;;;;;;;9.25;9.00;;;;;26.25;48.35;101853.31;4903459;28;45292;-76
2021/07/19 10:16:58;;;;;;;;;6.50;6.50;;;;;26.33;48.14;101849.97;4903235;28;45526;-76
2021/07/19 10:19:25;;;;;;;;;8.00;8.00;;;;;26.39;48.11;101854.00;4902606;29;45305;-78
2021/07/19 10:21:50;;;;;;;;;8.50;6.25;;;;;26.46;48.22;101844.44;4902056;28;45443;-76
2021/07/19 10:24:16;;;;;;;;;5.25;5.25;;;;;26.47;48.83;101846.16;4902439;28;46372;-76
2021/07/19 10:26:42;;;;;;;;;7.00;6.50;;;;;26.47;46.79;101851.53;4902736;28;45521;-76
2021/07/19 10:29:08;;;;;;;;;11.00;8.75;;;;;26.50;46.94;101845.91;4902755;28;45204;-76
2021/07/19 10:31:35;;;;;;;;;11.75;8.50;;;;;26.54;47.45;101845.66;4902172;29;45383;-76
2021/07/19 10:34:02;;;;;;;;;7.75;7.75;;;;;26.45;47.22;101840.03;4905353;28;46148;-76
2021/07/19 10:36:57;;;;;;;;;8.75;8.75;;;;;26.46;47.69;101843.59;4912631;28;45626;-78
2021/07/19 10:39:34;;;;;;;;;10.00;7.00;;;;;26.46;47.05;101844.44;4901728;29;45405;-76
2021/07/19 10:42:07;;;;;;;;;9.25;9.00;;;;;26.48;46.52;101836.22;4902532;29;45245;-76
2021/07/19 10:44:35;;;;;;;;;10.50;10.50;;;;;26.54;47.28;101840.25;4902554;29;46511;-77
2021/07/19 10:47:19;;;;;;;;;8.75;6.75;;;;;26.62;47.22;101835.91;4901657;28;45654;-76
2021/07/19 10:50:03;;;;;;;;;10.75;7.25;;;;;26.71;46.40;101846.91;4904683;28;45252;-76
2021/07/19 10:52:31;;;;;;;;;9.75;9.25;;;;;26.72;47.07;101829.72;4904896;29;45465;-76
2021/07/19 10:54:58;;;;;;;;;10.25;8.50;;;;;26.79;47.13;101833.63;4905925;28;45382;-77
2021/07/19 10:57:42;;;;;;;;;11.25;8.75;;;;;26.81;47.35;101831.66;4905072;28;45597;-77
2021/07/19 11:00:16;;;;;;;;;8.00;7.25;;;;;26.85;47.39;101826.84;4906450;28;45313;-77
2021/07/19 11:02:41;;;;;;;;;6.25;6.25;;;;;26.89;47.17;101822.03;4905521;28;45440;-77
2021/07/19 11:05:08;;;;;;;;;12.25;8.25;;;;;26.91;46.20;101820.94;4905479;29;45298;-77
2021/07/19 11:07:40;;;;;;;;;10.00;8.50;;;;;26.99;45.71;101822.09;4905988;29;45405;-77
2021/07/19 11:10:26;;;;;;;;;8.00;8.00;;;;;27.07;45.80;101838.44;4907576;28;45222;-78
2021/07/19 11:12:53;;;;;;;;;10.00;8.75;;;;;27.12;46.65;101821.91;4905285;29;45620;-77
2021/07/19 11:15:21;;;;;;;;;10.00;7.75;;;;;27.19;45.95;101818.53;4905886;28;45494;-77
2021/07/19 11:17:48;;;;;;;;;10.00;10.00;;;;;27.25;45.88;101818.97;4905744;28;45652;-77
2021/07/19 11:20:15;;;;;;;;;9.25;7.75;;;;;27.27;46.29;101814.28;4903756;29;45360;-78
2021/07/19 11:22:41;;;;;;;;;8.50;8.50;;;;;27.27;46.34;101814.28;4905521;28;45482;-78
2021/07/19 11:25:12;;;;;;;;;9.25;8.25;;;;;27.19;46.73;101818.53;4904081;29;47198;-78
2021/07/19 11:27:43;;;;;;;;;33.25;20.00;;;;;27.10;46.30;101818.44;4905663;28;45580;-78
2021/07/19 11:30:22;;;;;;;;;11.75;8.25;;;;;27.14;43.76;101814.53;4906018;28;45607;-78
2021/07/19 11:32:49;;;;;;;;;9.00;8.50;;;;;27.24;44.97;101826.22;4905334;29;46099;-78
2021/07/19 11:35:17;;;;;;;;;10.25;8.75;;;;;27.32;44.78;101819.28;4905231;29;46380;-78
2021/07/19 11:37:45;;;;;;;;;8.75;7.75;;;;;27.38;45.35;101819.63;4906020;28;45257;-78
2021/07/19 11:40:12;;;;;;;;;9.50;7.75;;;;;27.40;45.30;101814.06;4905707;29;45315;-78
2021/07/19 11:42:43;;;;;;;;;10.25;9.75;;;;;27.45;45.31;101816.34;4903485;29;47137;-78
2021/07/19 11:45:17;;;;;;;;;8.75;7.00;;;;;27.49;43.55;101813.25;4905860;28;46408;-78
2021/07/19 11:47:53;;;;;;;;;9.75;8.00;;;;;27.52;44.71;101812.13;4905400;28;45266;-77
2021/07/19 11:50:24;;;;;;;;;7.25;7.25;;;;;27.45;45.43;101811.81;4905348;29;45231;-77
2021/07/19 11:52:53;;;;;;;;;10.50;10.00;;;;;27.37;44.82;101814.34;4904502;29;45356;-77
2021/07/19 11:55:20;;;;;;;;;9.50;7.75;;;;;27.28;45.20;101802.53;4904946;28;46170;-77
2021/07/19 11:57:51;;;;;;;;;9.50;9.00;;;;;27.22;44.83;101806.63;4905228;29;45339;-77
2021/07/19 12:00:38;;;;;;;;;7.50;7.50;;;;;27.19;45.62;101802.34;4904591;29;45227;-77
2021/07/19 12:03:12;;;;;;;;;10.00;10.00;;;;;27.15;44.54;101790.13;4897212;29;45354;-77
2021/07/19 12:05:50;;;;;;;;;8.00;8.00;;;;;27.18;43.87;101795.25;4904643;28;45559;-77
2021/07/19 12:08:15;;;;;;;;;9.00;7.75;;;;;27.24;45.09;101799.22;4905435;29;45698;-77
2021/07/19 12:10:41;;;;;;;;;9.00;8.25;;;;;27.19;45.42;101788.84;4919414;28;45420;-77
2021/07/19 12:13:11;;;;;;;;;12.00;8.25;;;;;27.11;45.27;101790.50;4905019;28;45464;-77
2021/07/19 12:15:38;;;;;;;;;12.00;8.50;;;;;27.02;45.52;101784.91;4905030;28;45630;-77
2021/07/19 12:18:04;;;;;;;;;10.00;8.75;;;;;27.00;46.14;101786.03;4904973;28;45617;-77
2021/07/19 12:20:30;;;;;;;;;9.25;8.00;;;;;26.96;45.86;101786.31;4904745;29;45323;-77
2021/07/19 12:22:56;;;;;;;;;8.75;7.00;;;;;26.92;45.69;101795.66;4904893;29;45345;-77
2021/07/19 12:25:23;;;;;;;;;8.25;7.00;;;;;26.95;44.77;101783.75;4904354;28;45356;-77
2021/07/19 12:27:59;;;;;;;;;10.00;8.50;;;;;27.09;45.42;101785.22;4904663;28;45315;-77
2021/07/19 12:30:26;;;;;;;;;9.50;8.25;;;;;27.13;45.87;101777.75;4905057;29;45346;-77
2021/07/19 12:32:52;;;;;;;;;8.50;8.50;;;;;27.13;45.34;101769.66;4904289;29;46040;-77
2021/07/19 12:35:23;;;;;;;;;13.25;10.75;;;;;27.18;44.85;101768.28;4891814;29;45251;-77
2021/07/19 12:37:57;;;;;;;;;9.00;9.00;;;;;27.38;44.81;101773.75;4904496;28;45517;-78
2021/07/19 12:40:24;;;;;;;;;9.50;8.50;;;;;27.52;44.30;101771.63;4904600;29;45844;-77
2021/07/19 12:42:51;;;;;;;;;8.50;8.50;;;;;27.56;43.94;101770.34;4904737;28;45551;-78
2021/07/19 12:45:17;;;;;;;;;10.50;9.25;;;;;27.61;43.51;101768.09;4904323;28;45364;-77
2021/07/19 12:47:45;;;;;;;;;12.25;9.25;;;;;27.67;44.35;101760.44;4904290;28;45378;-77
2021/07/19 12:50:12;;;;;;;;;9.00;8.25;;;;;27.73;44.21;101755.31;4904241;29;45529;-78
2021/07/19 12:52:38;;;;;;;;;7.25;7.00;;;;;27.78;44.25;101756.75;4904443;28;45310;-78
2021/07/19 12:55:05;;;;;;;;;13.00;11.25;;;;;27.78;44.58;101757.59;4904116;29;46025;-77
2021/07/19 12:57:33;;;;;;;;;9.00;8.50;;;;;27.78;43.60;101752.19;4901006;29;46972;-77
2021/07/19 13:00:04;;;;;;;;;11.25;9.00;;;;;27.86;42.63;101763.19;4904485;29;45230;-77
2021/07/19 13:02:29;;;;;;;;;7.50;7.50;;;;;27.96;43.38;101748.81;4903068;29;46178;-77
2021/07/19 13:05:08;;;;;;;;;13.00;9.25;;;;;28.05;43.68;101742.56;4898672;29;46245;-77
2021/07/19 13:07:37;;;;;;;;;7.50;7.25;;;;;28.12;43.65;101747.41;4899994;28;45409;-77
2021/07/19 13:10:11;;;;;;;;;9.75;9.00;;;;;28.14;41.64;101745.41;4890765;28;45280;-77
2021/07/19 13:12:52;;;;;;;;;11.50;9.75;;;;;28.19;42.27;101743.13;4892988;28;45422;-77
2021/07/19 13:15:20;;;;;;;;;11.75;9.50;;;;;28.23;41.30;101749.09;4892235;28;46393;-77
2021/07/19 13:17:46;;;;;;;;;11.50;9.00;;;;;28.28;41.83;101742.25;4903564;29;45595;-77
2021/07/19 13:20:14;;;;;;;;;9.50;9.50;;;;;28.34;42.04;101734.56;4904337;29;45360;-77
2021/07/19 13:22:43;;;;;;;;;11.50;11.00;;;;;28.36;42.14;101741.53;4904101;29;45245;-77
2021/07/19 13:25:20;;;;;;;;;8.25;8.00;;;;;28.39;41.86;101740.41;4902872;28;45468;-77
2021/07/19 13:27:47;;;;;;;;;8.50;8.50;;;;;28.45;42.92;101728.19;4903862;28;45532;-78
2021/07/19 13:30:16;;;;;;;;;7.50;7.50;;;;;28.47;42.87;101729.72;4903878;28;45327;-78
2021/07/19 13:32:43;;;;;;;;;10.00;9.00;;;;;28.44;41.85;101730.03;4903192;29;45212;-84
2021/07/19 13:35:14;;;;;;;;;8.00;6.75;;;;;28.44;42.47;101732.75;4903217;28;45402;-78
2021/07/19 13:37:45;;;;;;;;;10.25;10.00;;;;;28.44;42.64;101735.44;4902276;29;45706;-78
2021/07/19 13:40:15;;;;;;;;;7.75;7.00;;;;;28.38;42.37;101730.56;4903880;29;45469;-78
2021/07/19 13:42:44;;;;;;;;;8.75;8.50;;;;;28.37;42.75;101721.63;4903229;29;45225;-78
2021/07/19 13:45:19;;;;;;;;;8.25;7.25;;;;;28.42;42.91;101729.31;4903575;28;45350;-77
2021/07/19 13:47:45;;;;;;;;;12.75;10.50;;;;;28.41;43.44;101730.28;4903498;28;45362;-78
2021/07/19 13:50:11;;;;;;;;;11.00;10.00;;;;;28.39;43.12;101725.03;4903894;28;45300;-78
2021/07/19 13:52:37;;;;;;;;;11.00;9.25;;;;;28.41;42.76;101723.03;4902673;28;45510;-80
2021/07/19 13:55:03;;;;;;;;;10.25;8.50;;;;;28.43;43.98;101722.88;4903166;29;46734;-80
2021/07/19 13:57:28;;;;;;;;;10.25;9.50;;;;;28.37;42.53;101723.47;4902411;28;45425;-80
2021/07/19 13:59:54;;;;;;;;;11.25;9.50;;;;;28.41;42.86;101727.59;4901179;28;45452;-79
2021/07/19 14:02:19;;;;;;;;;10.00;9.00;;;;;28.50;42.82;101718.63;4902884;28;45588;-79
2021/07/19 14:04:44;;;;;;;;;11.00;8.25;;;;;28.57;41.53;101726.16;4902857;28;45831;-80
2021/07/19 14:07:09;;;;;;;;;14.25;9.75;;;;;28.60;40.42;101728.56;4903715;29;45325;-79
2021/07/19 14:09:35;;;;;;;;;13.75;11.75;;;;;28.64;41.07;101730.81;4903275;28;45404;-79
2021/07/19 14:12:01;;;;;;;;;9.00;8.50;;;;;28.74;41.62;101719.16;4902838;28;45413;-79
2021/07/19 14:14:27;;;;;;;;;12.50;9.00;;;;;28.81;42.13;101722.09;4903383;28;47768;-79
2021/07/19 14:16:53;;;;;;;;;8.00;8.00;;;;;28.88;41.97;101728.63;4903471;29;45283;-80
2021/07/19 14:19:18;;;;;;;;;11.00;9.00;;;;;28.92;41.90;101724.59;4903746;28;45233;-79
2021/07/19 14:21:43;;;;;;;;;8.75;8.75;;;;;28.96;42.07;101717.91;4913079;28;47132;-79
2021/07/19 14:24:09;;;;;;;;;11.25;8.25;;;;;29.01;42.11;101720.16;4901215;29;46250;-79
2021/07/19 14:26:35;;;;;;;;;9.00;7.75;;;;;29.04;41.37;101714.44;4903226;28;45314;-79
2021/07/19 14:29:03;;;;;;;;;7.75;7.75;;;;;29.09;41.73;101708.59;4903116;28;45323;-79
2021/07/19 14:31:29;;;;;;;;;10.00;9.50;;;;;29.10;41.52;101702.19;4903401;28;45304;-79
2021/07/19 14:33:55;;;;;;;;;8.00;7.75;;;;;29.10;41.88;101696.78;4902652;29;45359;-78
2021/07/19 14:36:22;;;;;;;;;11.25;10.75;;;;;29.08;41.75;101696.94;4901715;29;45218;-82
2021/07/19 14:38:47;;;;;;;;;15.25;8.25;;;;;29.07;41.77;101688.94;4901598;29;45200;-81
2021/07/19 14:41:13;;;;;;;;;11.00;9.50;;;;;29.10;41.58;101691.38;4902612;28;45252;-82
2021/07/19 14:43:38;;;;;;;;;9.00;8.75;;;;;29.09;41.40;101684.25;4901942;28;46676;-81
2021/07/19 14:46:05;;;;;;;;;9.00;8.00;;;;;29.13;41.42;101695.63;4902618;28;45845;-81
2021/07/19 14:48:31;;;;;;;;;8.25;8.25;;;;;29.15;41.26;101701.75;4902624;29;45260;-80
2021/07/19 14:50:56;;;;;;;;;9.50;8.25;;;;;29.14;41.09;101698.19;4900932;28;46096;-81
2021/07/19 14:53:22;;;;;;;;;8.00;7.75;;;;;29.17;41.19;101691.59;4902434;29;46360;-81
2021/07/19 14:55:47;;;;;;;;;6.50;6.50;;;;;29.14;40.87;101684.63;4902305;28;45466;-82
2021/07/19 14:58:12;;;;;;;;;11.75;8.25;;;;;29.16;41.35;101692.63;4902755;28;45522;-81
2021/07/19 15:00:38;;;;;;;;;8.25;7.25;;;;;29.17;40.90;101691.59;4902812;28;45435;-81
2021/07/19 15:03:03;;;;;;;;;9.00;9.00;;;;;29.18;40.74;101688.78;4901758;28;45449;-80